sensor_id;sensor_type;location;lat;lon;timestamp;P1;durP1;ratioP1;P2;durP2;ratioP2
48550;SDS011;34397;51.176;6.738;2022-09-01T00:01:03;5.07;;;2.58;;
48550;SDS011;34397;51.176;6.738;2022-09-01T00:03:37;3.88;;;2.40;;
48550;SDS011;34397;51.176;6.738;2022-09-01T00:06:11;6.13;;;2.40;;
48550;SDS011;34397;51.176;6.738;2022-09-01T00:08:43;5.53;;;2.15;;
48550;SDS011;34397;51.176;6.738;2022-09-01T00:11:14;4.85;;;2.10;;
48550;SDS011;34397;51.176;6.738;2022-09-01T00:13:47;4.05;;;2.15;;
48550;SDS011;34397;51.176;6.738;2022-09-01T00:16:20;4.10;;;2.00;;
48550;SDS011;34397;51.176;6.738;2022-09-01T00:18:53;5.80;;;2.20;;
48550;SDS011;34397;51.176;6.738;2022-09-01T00:21:28;4.05;;;1.98;;
48550;SDS011;34397;51.176;6.738;2022-09-01T00:24:04;4.97;;;1.98;;
48550;SDS011;34397;51.176;6.738;2022-09-01T00:26:37;3.90;;;2.00;;
48550;SDS011;34397;51.176;6.738;2022-09-01T00:29:09;6.68;;;2.00;;
48550;SDS011;34397;51.176;6.738;2022-09-01T00:31:42;4.00;;;1.70;;
48550;SDS011;34397;51.176;6.738;2022-09-01T00:34:16;5.35;;;2.08;;
48550;SDS011;34397;51.176;6.738;2022-09-01T00:36:50;5.90;;;2.40;;
48550;SDS011;34397;51.176;6.738;2022-09-01T00:39:22;5.10;;;2.13;;
48550;SDS011;34397;51.176;6.738;2022-09-01T00:41:54;3.85;;;1.88;;
48550;SDS011;34397;51.176;6.738;2022-09-01T00:44:27;4.03;;;1.88;;
48550;SDS011;34397;51.176;6.738;2022-09-01T00:46:59;4.90;;;2.30;;
48550;SDS011;34397;51.176;6.738;2022-09-01T00:49:31;4.15;;;2.03;;
48550;SDS011;34397;51.176;6.738;2022-09-01T00:52:10;4.75;;;2.20;;
48550;SDS011;34397;51.176;6.738;2022-09-01T00:54:48;4.10;;;1.88;;
48550;SDS011;34397;51.176;6.738;2022-09-01T00:57:27;3.75;;;1.83;;
48550;SDS011;34397;51.176;6.738;2022-09-01T01:00:04;3.80;;;2.00;;
48550;SDS011;34397;51.176;6.738;2022-09-01T01:02:43;5.30;;;2.13;;
48550;SDS011;34397;51.176;6.738;2022-09-01T01:05:18;4.45;;;2.20;;
48550;SDS011;34397;51.176;6.738;2022-09-01T01:07:52;3.33;;;1.90;;
48550;SDS011;34397;51.176;6.738;2022-09-01T01:10:25;4.53;;;2.17;;
48550;SDS011;34397;51.176;6.738;2022-09-01T01:13:05;5.15;;;2.30;;
48550;SDS011;34397;51.176;6.738;2022-09-01T01:15:42;6.85;;;2.67;;
48550;SDS011;34397;51.176;6.738;2022-09-01T01:18:15;4.80;;;2.35;;
48550;SDS011;34397;51.176;6.738;2022-09-01T01:20:54;4.82;;;2.00;;
48550;SDS011;34397;51.176;6.738;2022-09-01T01:23:49;6.50;;;2.20;;
48550;SDS011;34397;51.176;6.738;2022-09-01T01:26:29;4.13;;;2.10;;
48550;SDS011;34397;51.176;6.738;2022-09-01T01:29:01;4.88;;;2.65;;
48550;SDS011;34397;51.176;6.738;2022-09-01T01:31:36;4.35;;;2.05;;
48550;SDS011;34397;51.176;6.738;2022-09-01T01:34:10;4.50;;;2.33;;
48550;SDS011;34397;51.176;6.738;2022-09-01T01:36:42;7.35;;;2.20;;
48550;SDS011;34397;51.176;6.738;2022-09-01T01:39:15;4.22;;;2.17;;
48550;SDS011;34397;51.176;6.738;2022-09-01T01:41:53;6.07;;;2.38;;
48550;SDS011;34397;51.176;6.738;2022-09-01T01:44:27;4.95;;;2.20;;
48550;SDS011;34397;51.176;6.738;2022-09-01T01:47:00;4.37;;;2.50;;
48550;SDS011;34397;51.176;6.738;2022-09-01T01:49:39;4.32;;;2.17;;
48550;SDS011;34397;51.176;6.738;2022-09-01T01:52:14;5.53;;;2.63;;
48550;SDS011;34397;51.176;6.738;2022-09-01T01:54:47;4.45;;;2.15;;
48550;SDS011;34397;51.176;6.738;2022-09-01T01:57:20;4.03;;;2.20;;
48550;SDS011;34397;51.176;6.738;2022-09-01T01:59:52;5.65;;;2.50;;
48550;SDS011;34397;51.176;6.738;2022-09-01T02:02:24;4.95;;;2.40;;
48550;SDS011;34397;51.176;6.738;2022-09-01T02:04:56;6.63;;;2.20;;
48550;SDS011;34397;51.176;6.738;2022-09-01T02:07:28;3.65;;;2.05;;
48550;SDS011;34397;51.176;6.738;2022-09-01T02:10:02;3.75;;;1.92;;
48550;SDS011;34397;51.176;6.738;2022-09-01T02:12:36;4.28;;;2.50;;
48550;SDS011;34397;51.176;6.738;2022-09-01T02:15:10;5.47;;;2.58;;
48550;SDS011;34397;51.176;6.738;2022-09-01T02:17:42;7.03;;;2.47;;
48550;SDS011;34397;51.176;6.738;2022-09-01T02:20:15;4.55;;;3.08;;
48550;SDS011;34397;51.176;6.738;2022-09-01T02:22:47;3.47;;;2.20;;
48550;SDS011;34397;51.176;6.738;2022-09-01T02:25:21;5.63;;;2.40;;
48550;SDS011;34397;51.176;6.738;2022-09-01T02:27:54;4.75;;;2.45;;
48550;SDS011;34397;51.176;6.738;2022-09-01T02:30:26;4.63;;;2.20;;
48550;SDS011;34397;51.176;6.738;2022-09-01T02:33:02;4.95;;;2.47;;
48550;SDS011;34397;51.176;6.738;2022-09-01T02:35:34;6.13;;;2.55;;
48550;SDS011;34397;51.176;6.738;2022-09-01T02:38:07;5.75;;;2.40;;
48550;SDS011;34397;51.176;6.738;2022-09-01T02:40:39;5.32;;;2.67;;
48550;SDS011;34397;51.176;6.738;2022-09-01T02:43:16;3.78;;;2.40;;
48550;SDS011;34397;51.176;6.738;2022-09-01T02:45:50;5.88;;;2.70;;
48550;SDS011;34397;51.176;6.738;2022-09-01T02:48:26;4.57;;;2.42;;
48550;SDS011;34397;51.176;6.738;2022-09-01T02:51:02;4.78;;;2.50;;
48550;SDS011;34397;51.176;6.738;2022-09-01T02:53:37;5.32;;;2.30;;
48550;SDS011;34397;51.176;6.738;2022-09-01T02:56:11;5.00;;;2.30;;
48550;SDS011;34397;51.176;6.738;2022-09-01T02:58:45;3.88;;;2.30;;
48550;SDS011;34397;51.176;6.738;2022-09-01T03:01:18;4.70;;;2.28;;
48550;SDS011;34397;51.176;6.738;2022-09-01T03:03:54;4.50;;;2.38;;
48550;SDS011;34397;51.176;6.738;2022-09-01T03:06:28;4.50;;;2.30;;
48550;SDS011;34397;51.176;6.738;2022-09-01T03:09:03;4.60;;;2.58;;
48550;SDS011;34397;51.176;6.738;2022-09-01T03:11:38;3.83;;;2.30;;
48550;SDS011;34397;51.176;6.738;2022-09-01T03:14:14;5.25;;;2.45;;
48550;SDS011;34397;51.176;6.738;2022-09-01T03:16:48;5.05;;;2.35;;
48550;SDS011;34397;51.176;6.738;2022-09-01T03:19:20;4.27;;;2.40;;
48550;SDS011;34397;51.176;6.738;2022-09-01T03:21:52;5.43;;;2.00;;
48550;SDS011;34397;51.176;6.738;2022-09-01T03:24:29;4.63;;;2.40;;
48550;SDS011;34397;51.176;6.738;2022-09-01T03:27:01;4.53;;;2.42;;
48550;SDS011;34397;51.176;6.738;2022-09-01T03:29:34;4.82;;;2.45;;
48550;SDS011;34397;51.176;6.738;2022-09-01T03:32:07;5.18;;;2.67;;
48550;SDS011;34397;51.176;6.738;2022-09-01T03:34:39;3.97;;;2.20;;
48550;SDS011;34397;51.176;6.738;2022-09-01T03:37:11;4.18;;;2.60;;
48550;SDS011;34397;51.176;6.738;2022-09-01T03:39:43;7.03;;;2.63;;
48550;SDS011;34397;51.176;6.738;2022-09-01T03:42:15;4.80;;;2.55;;
48550;SDS011;34397;51.176;6.738;2022-09-01T03:44:56;4.88;;;2.40;;
48550;SDS011;34397;51.176;6.738;2022-09-01T03:47:28;4.72;;;2.45;;
48550;SDS011;34397;51.176;6.738;2022-09-01T03:50:02;5.07;;;2.65;;
48550;SDS011;34397;51.176;6.738;2022-09-01T03:52:35;4.35;;;2.70;;
48550;SDS011;34397;51.176;6.738;2022-09-01T03:57:40;5.43;;;2.67;;
48550;SDS011;34397;51.176;6.738;2022-09-01T04:00:14;3.38;;;1.90;;
48550;SDS011;34397;51.176;6.738;2022-09-01T04:02:50;5.15;;;2.47;;
48550;SDS011;34397;51.176;6.738;2022-09-01T04:05:29;3.97;;;2.50;;
48550;SDS011;34397;51.176;6.738;2022-09-01T04:08:03;7.22;;;2.70;;
48550;SDS011;34397;51.176;6.738;2022-09-01T04:10:41;5.68;;;2.70;;
48550;SDS011;34397;51.176;6.738;2022-09-01T04:13:20;5.60;;;2.58;;
48550;SDS011;34397;51.176;6.738;2022-09-01T04:15:57;5.22;;;2.40;;
48550;SDS011;34397;51.176;6.738;2022-09-01T04:18:29;4.82;;;2.40;;
48550;SDS011;34397;51.176;6.738;2022-09-01T04:21:00;4.85;;;2.38;;
48550;SDS011;34397;51.176;6.738;2022-09-01T04:23:38;5.45;;;2.80;;
48550;SDS011;34397;51.176;6.738;2022-09-01T04:26:18;4.65;;;2.67;;
48550;SDS011;34397;51.176;6.738;2022-09-01T04:28:53;5.18;;;2.60;;
48550;SDS011;34397;51.176;6.738;2022-09-01T04:31:26;4.77;;;2.70;;
48550;SDS011;34397;51.176;6.738;2022-09-01T04:34:03;5.90;;;2.70;;
48550;SDS011;34397;51.176;6.738;2022-09-01T04:36:43;5.78;;;2.97;;
48550;SDS011;34397;51.176;6.738;2022-09-01T04:39:17;4.43;;;2.42;;
48550;SDS011;34397;51.176;6.738;2022-09-01T04:41:50;5.10;;;2.65;;
48550;SDS011;34397;51.176;6.738;2022-09-01T04:44:23;4.80;;;2.50;;
48550;SDS011;34397;51.176;6.738;2022-09-01T04:47:01;4.45;;;2.53;;
48550;SDS011;34397;51.176;6.738;2022-09-01T04:49:40;6.40;;;3.15;;
48550;SDS011;34397;51.176;6.738;2022-09-01T04:52:17;5.13;;;2.63;;
48550;SDS011;34397;51.176;6.738;2022-09-01T04:54:49;5.28;;;2.90;;
48550;SDS011;34397;51.176;6.738;2022-09-01T04:57:21;5.40;;;3.05;;
48550;SDS011;34397;51.176;6.738;2022-09-01T04:59:58;6.65;;;2.95;;
48550;SDS011;34397;51.176;6.738;2022-09-01T05:02:34;5.53;;;3.03;;
48550;SDS011;34397;51.176;6.738;2022-09-01T05:05:08;6.00;;;2.90;;
48550;SDS011;34397;51.176;6.738;2022-09-01T05:10:13;4.80;;;2.47;;
48550;SDS011;34397;51.176;6.738;2022-09-01T05:12:47;7.45;;;3.10;;
48550;SDS011;34397;51.176;6.738;2022-09-01T05:15:24;6.72;;;2.80;;
48550;SDS011;34397;51.176;6.738;2022-09-01T05:18:01;6.20;;;3.17;;
48550;SDS011;34397;51.176;6.738;2022-09-01T05:20:39;5.20;;;2.95;;
48550;SDS011;34397;51.176;6.738;2022-09-01T05:23:12;10.68;;;3.05;;
48550;SDS011;34397;51.176;6.738;2022-09-01T05:25:49;6.13;;;2.90;;
48550;SDS011;34397;51.176;6.738;2022-09-01T05:28:23;10.65;;;3.38;;
48550;SDS011;34397;51.176;6.738;2022-09-01T05:30:58;8.13;;;3.13;;
48550;SDS011;34397;51.176;6.738;2022-09-01T05:36:06;4.80;;;2.80;;
48550;SDS011;34397;51.176;6.738;2022-09-01T05:38:40;6.25;;;2.83;;
48550;SDS011;34397;51.176;6.738;2022-09-01T05:41:13;5.93;;;3.10;;
48550;SDS011;34397;51.176;6.738;2022-09-01T05:43:48;5.93;;;2.75;;
48550;SDS011;34397;51.176;6.738;2022-09-01T05:46:23;6.80;;;2.70;;
48550;SDS011;34397;51.176;6.738;2022-09-01T05:48:58;5.18;;;2.70;;
48550;SDS011;34397;51.176;6.738;2022-09-01T05:51:34;5.88;;;2.90;;
48550;SDS011;34397;51.176;6.738;2022-09-01T05:54:06;6.10;;;2.78;;
48550;SDS011;34397;51.176;6.738;2022-09-01T05:56:39;6.57;;;3.17;;
48550;SDS011;34397;51.176;6.738;2022-09-01T05:59:12;5.30;;;3.03;;
48550;SDS011;34397;51.176;6.738;2022-09-01T06:01:45;9.38;;;3.20;;
48550;SDS011;34397;51.176;6.738;2022-09-01T06:04:19;7.30;;;2.72;;
48550;SDS011;34397;51.176;6.738;2022-09-01T06:06:53;4.30;;;2.75;;
48550;SDS011;34397;51.176;6.738;2022-09-01T06:09:26;7.50;;;3.13;;
48550;SDS011;34397;51.176;6.738;2022-09-01T06:11:58;5.22;;;2.90;;
48550;SDS011;34397;51.176;6.738;2022-09-01T06:14:31;9.35;;;3.03;;
48550;SDS011;34397;51.176;6.738;2022-09-01T06:17:03;5.75;;;2.78;;
48550;SDS011;34397;51.176;6.738;2022-09-01T06:19:42;4.95;;;2.78;;
48550;SDS011;34397;51.176;6.738;2022-09-01T06:22:15;6.53;;;2.97;;
48550;SDS011;34397;51.176;6.738;2022-09-01T06:24:50;8.02;;;3.42;;
48550;SDS011;34397;51.176;6.738;2022-09-01T06:29:56;6.90;;;2.92;;
48550;SDS011;34397;51.176;6.738;2022-09-01T06:32:33;5.15;;;2.50;;
48550;SDS011;34397;51.176;6.738;2022-09-01T06:35:08;7.53;;;2.60;;
48550;SDS011;34397;51.176;6.738;2022-09-01T06:37:46;7.82;;;2.72;;
48550;SDS011;34397;51.176;6.738;2022-09-01T06:40:19;6.68;;;2.50;;
48550;SDS011;34397;51.176;6.738;2022-09-01T06:42:51;5.03;;;2.58;;
48550;SDS011;34397;51.176;6.738;2022-09-01T06:45:24;6.13;;;3.10;;
48550;SDS011;34397;51.176;6.738;2022-09-01T06:47:56;5.47;;;2.63;;
48550;SDS011;34397;51.176;6.738;2022-09-01T06:50:29;6.95;;;2.60;;
48550;SDS011;34397;51.176;6.738;2022-09-01T06:53:01;5.50;;;2.30;;
48550;SDS011;34397;51.176;6.738;2022-09-01T06:55:40;5.95;;;2.15;;
48550;SDS011;34397;51.176;6.738;2022-09-01T06:58:13;4.15;;;2.03;;
48550;SDS011;34397;51.176;6.738;2022-09-01T07:00:48;4.28;;;2.28;;
48550;SDS011;34397;51.176;6.738;2022-09-01T07:03:20;4.73;;;2.13;;
48550;SDS011;34397;51.176;6.738;2022-09-01T07:05:55;5.45;;;2.08;;
48550;SDS011;34397;51.176;6.738;2022-09-01T07:08:27;6.70;;;2.47;;
48550;SDS011;34397;51.176;6.738;2022-09-01T07:11:16;5.13;;;2.38;;
48550;SDS011;34397;51.176;6.738;2022-09-01T07:13:55;15.73;;;2.78;;
48550;SDS011;34397;51.176;6.738;2022-09-01T07:16:31;4.97;;;2.28;;
48550;SDS011;34397;51.176;6.738;2022-09-01T07:19:09;8.60;;;2.65;;
48550;SDS011;34397;51.176;6.738;2022-09-01T07:21:47;5.28;;;2.28;;
48550;SDS011;34397;51.176;6.738;2022-09-01T07:24:20;5.53;;;2.00;;
48550;SDS011;34397;51.176;6.738;2022-09-01T07:26:52;4.32;;;2.00;;
48550;SDS011;34397;51.176;6.738;2022-09-01T07:29:24;4.65;;;2.13;;
48550;SDS011;34397;51.176;6.738;2022-09-01T07:31:57;5.95;;;2.45;;
48550;SDS011;34397;51.176;6.738;2022-09-01T07:34:29;4.43;;;2.17;;
48550;SDS011;34397;51.176;6.738;2022-09-01T07:37:03;5.43;;;2.05;;
48550;SDS011;34397;51.176;6.738;2022-09-01T07:39:35;4.40;;;1.77;;
48550;SDS011;34397;51.176;6.738;2022-09-01T07:42:08;4.10;;;2.00;;
48550;SDS011;34397;51.176;6.738;2022-09-01T07:44:46;2.70;;;1.70;;
48550;SDS011;34397;51.176;6.738;2022-09-01T07:47:21;4.20;;;2.00;;
48550;SDS011;34397;51.176;6.738;2022-09-01T07:49:57;5.00;;;1.90;;
48550;SDS011;34397;51.176;6.738;2022-09-01T07:52:38;3.80;;;1.95;;
48550;SDS011;34397;51.176;6.738;2022-09-01T07:55:13;4.70;;;1.88;;
48550;SDS011;34397;51.176;6.738;2022-09-01T07:57:48;4.07;;;1.70;;
48550;SDS011;34397;51.176;6.738;2022-09-01T08:00:21;3.75;;;2.00;;
48550;SDS011;34397;51.176;6.738;2022-09-01T08:02:53;4.60;;;1.95;;
48550;SDS011;34397;51.176;6.738;2022-09-01T08:05:25;6.27;;;2.30;;
48550;SDS011;34397;51.176;6.738;2022-09-01T08:08:01;4.05;;;1.85;;
48550;SDS011;34397;51.176;6.738;2022-09-01T08:10:36;5.22;;;1.90;;
48550;SDS011;34397;51.176;6.738;2022-09-01T08:13:16;3.58;;;1.90;;
48550;SDS011;34397;51.176;6.738;2022-09-01T08:15:51;5.13;;;1.83;;
48550;SDS011;34397;51.176;6.738;2022-09-01T08:18:31;5.40;;;2.10;;
48550;SDS011;34397;51.176;6.738;2022-09-01T08:21:04;3.85;;;1.83;;
48550;SDS011;34397;51.176;6.738;2022-09-01T08:23:39;4.53;;;1.80;;
48550;SDS011;34397;51.176;6.738;2022-09-01T08:26:12;3.70;;;1.80;;
48550;SDS011;34397;51.176;6.738;2022-09-01T08:28:47;3.33;;;1.50;;
48550;SDS011;34397;51.176;6.738;2022-09-01T08:31:20;4.10;;;1.75;;
48550;SDS011;34397;51.176;6.738;2022-09-01T08:33:53;3.83;;;1.58;;
48550;SDS011;34397;51.176;6.738;2022-09-01T08:36:25;3.25;;;1.42;;
48550;SDS011;34397;51.176;6.738;2022-09-01T08:39:04;4.15;;;1.40;;
48550;SDS011;34397;51.176;6.738;2022-09-01T08:41:40;9.35;;;2.13;;
48550;SDS011;34397;51.176;6.738;2022-09-01T08:44:20;3.08;;;1.30;;
48550;SDS011;34397;51.176;6.738;2022-09-01T08:47:04;3.35;;;1.60;;
48550;SDS011;34397;51.176;6.738;2022-09-01T08:49:43;4.38;;;1.40;;
48550;SDS011;34397;51.176;6.738;2022-09-01T08:52:20;9.52;;;1.80;;
48550;SDS011;34397;51.176;6.738;2022-09-01T08:55:01;7.00;;;1.90;;
48550;SDS011;34397;51.176;6.738;2022-09-01T08:57:41;5.57;;;1.40;;
48550;SDS011;34397;51.176;6.738;2022-09-01T09:00:17;2.75;;;1.17;;
48550;SDS011;34397;51.176;6.738;2022-09-01T09:03:01;4.05;;;1.20;;
48550;SDS011;34397;51.176;6.738;2022-09-01T09:05:48;2.22;;;1.20;;
48550;SDS011;34397;51.176;6.738;2022-09-01T09:08:50;3.88;;;1.10;;
48550;SDS011;34397;51.176;6.738;2022-09-01T09:11:49;3.13;;;1.40;;
48550;SDS011;34397;51.176;6.738;2022-09-01T09:14:43;4.57;;;1.50;;
48550;SDS011;34397;51.176;6.738;2022-09-01T09:17:31;2.58;;;1.20;;
48550;SDS011;34397;51.176;6.738;2022-09-01T09:20:08;2.20;;;1.27;;
48550;SDS011;34397;51.176;6.738;2022-09-01T09:22:45;3.15;;;1.30;;
48550;SDS011;34397;51.176;6.738;2022-09-01T09:25:19;4.30;;;1.35;;
48550;SDS011;34397;51.176;6.738;2022-09-01T09:27:55;1.73;;;1.10;;
48550;SDS011;34397;51.176;6.738;2022-09-01T09:30:30;2.22;;;1.10;;
48550;SDS011;34397;51.176;6.738;2022-09-01T09:33:03;1.92;;;1.08;;
48550;SDS011;34397;51.176;6.738;2022-09-01T09:35:41;1.73;;;0.90;;
48550;SDS011;34397;51.176;6.738;2022-09-01T09:38:19;2.70;;;1.10;;
48550;SDS011;34397;51.176;6.738;2022-09-01T09:40:58;2.13;;;1.20;;
48550;SDS011;34397;51.176;6.738;2022-09-01T09:43:43;2.13;;;0.95;;
48550;SDS011;34397;51.176;6.738;2022-09-01T09:46:19;1.90;;;0.90;;
48550;SDS011;34397;51.176;6.738;2022-09-01T09:49:09;4.75;;;1.30;;
48550;SDS011;34397;51.176;6.738;2022-09-01T09:51:53;4.70;;;1.23;;
48550;SDS011;34397;51.176;6.738;2022-09-01T09:54:28;3.67;;;1.15;;
48550;SDS011;34397;51.176;6.738;2022-09-01T09:57:08;2.45;;;1.17;;
48550;SDS011;34397;51.176;6.738;2022-09-01T09:59:49;1.48;;;0.98;;
48550;SDS011;34397;51.176;6.738;2022-09-01T10:02:30;2.08;;;1.05;;
48550;SDS011;34397;51.176;6.738;2022-09-01T10:05:20;2.38;;;1.00;;
48550;SDS011;34397;51.176;6.738;2022-09-01T10:08:06;3.50;;;1.40;;
48550;SDS011;34397;51.176;6.738;2022-09-01T10:10:47;3.00;;;1.08;;
48550;SDS011;34397;51.176;6.738;2022-09-01T10:13:23;2.30;;;1.17;;
48550;SDS011;34397;51.176;6.738;2022-09-01T10:16:06;1.80;;;0.98;;
48550;SDS011;34397;51.176;6.738;2022-09-01T10:18:57;1.75;;;0.90;;
48550;SDS011;34397;51.176;6.738;2022-09-01T10:21:34;1.60;;;1.00;;
48550;SDS011;34397;51.176;6.738;2022-09-01T10:24:13;3.50;;;1.00;;
48550;SDS011;34397;51.176;6.738;2022-09-01T10:26:51;2.92;;;1.10;;
48550;SDS011;34397;51.176;6.738;2022-09-01T10:29:29;1.85;;;0.95;;
48550;SDS011;34397;51.176;6.738;2022-09-01T10:32:07;1.35;;;0.90;;
48550;SDS011;34397;51.176;6.738;2022-09-01T10:34:45;1.48;;;1.02;;
48550;SDS011;34397;51.176;6.738;2022-09-01T10:37:24;2.17;;;1.00;;
48550;SDS011;34397;51.176;6.738;2022-09-01T10:40:13;2.53;;;1.08;;
48550;SDS011;34397;51.176;6.738;2022-09-01T10:42:51;1.42;;;0.93;;
48550;SDS011;34397;51.176;6.738;2022-09-01T10:45:34;2.60;;;1.15;;
48550;SDS011;34397;51.176;6.738;2022-09-01T10:48:23;2.78;;;1.08;;
48550;SDS011;34397;51.176;6.738;2022-09-01T10:57:31;1.83;;;0.95;;
48550;SDS011;34397;51.176;6.738;2022-09-01T11:03:37;2.38;;;0.90;;
48550;SDS011;34397;51.176;6.738;2022-09-01T11:06:43;1.60;;;1.10;;
48550;SDS011;34397;51.176;6.738;2022-09-01T11:09:32;2.05;;;1.10;;
48550;SDS011;34397;51.176;6.738;2022-09-01T11:12:14;2.28;;;1.10;;
48550;SDS011;34397;51.176;6.738;2022-09-01T11:18:22;1.60;;;1.10;;
48550;SDS011;34397;51.176;6.738;2022-09-01T11:23:50;1.90;;;1.23;;
48550;SDS011;34397;51.176;6.738;2022-09-01T11:32:23;2.15;;;1.00;;
48550;SDS011;34397;51.176;6.738;2022-09-01T11:35:04;1.58;;;1.00;;
48550;SDS011;34397;51.176;6.738;2022-09-01T11:37:47;1.92;;;1.10;;
48550;SDS011;34397;51.176;6.738;2022-09-01T11:40:22;3.45;;;1.10;;
48550;SDS011;34397;51.176;6.738;2022-09-01T11:42:59;3.75;;;1.30;;
48550;SDS011;34397;51.176;6.738;2022-09-01T11:45:39;4.18;;;1.00;;
48550;SDS011;34397;51.176;6.738;2022-09-01T11:48:31;4.18;;;1.50;;
48550;SDS011;34397;51.176;6.738;2022-09-01T11:51:03;1.40;;;1.00;;
48550;SDS011;34397;51.176;6.738;2022-09-01T11:53:37;2.58;;;1.23;;
48550;SDS011;34397;51.176;6.738;2022-09-01T11:56:11;1.77;;;1.33;;
48550;SDS011;34397;51.176;6.738;2022-09-01T11:58:51;1.98;;;1.10;;
48550;SDS011;34397;51.176;6.738;2022-09-01T12:01:29;1.30;;;1.10;;
48550;SDS011;34397;51.176;6.738;2022-09-01T12:04:16;2.58;;;1.30;;
48550;SDS011;34397;51.176;6.738;2022-09-01T12:06:53;2.17;;;1.33;;
48550;SDS011;34397;51.176;6.738;2022-09-01T12:09:32;2.05;;;1.35;;
48550;SDS011;34397;51.176;6.738;2022-09-01T12:12:25;3.25;;;1.30;;
48550;SDS011;34397;51.176;6.738;2022-09-01T12:15:03;1.80;;;1.10;;
48550;SDS011;34397;51.176;6.738;2022-09-01T12:17:39;1.63;;;1.20;;
48550;SDS011;34397;51.176;6.738;2022-09-01T12:20:18;4.30;;;1.42;;
48550;SDS011;34397;51.176;6.738;2022-09-01T12:22:53;2.50;;;1.38;;
48550;SDS011;34397;51.176;6.738;2022-09-01T12:25:28;2.97;;;1.45;;
48550;SDS011;34397;51.176;6.738;2022-09-01T12:28:02;3.20;;;1.52;;
48550;SDS011;34397;51.176;6.738;2022-09-01T12:30:35;2.92;;;1.70;;
48550;SDS011;34397;51.176;6.738;2022-09-01T12:33:10;2.40;;;1.42;;
48550;SDS011;34397;51.176;6.738;2022-09-01T12:35:44;2.25;;;1.30;;
48550;SDS011;34397;51.176;6.738;2022-09-01T12:38:23;2.03;;;1.30;;
48550;SDS011;34397;51.176;6.738;2022-09-01T12:41:00;14.43;;;1.92;;
48550;SDS011;34397;51.176;6.738;2022-09-01T12:43:33;3.67;;;1.40;;
48550;SDS011;34397;51.176;6.738;2022-09-01T12:46:08;5.28;;;1.40;;
48550;SDS011;34397;51.176;6.738;2022-09-01T12:48:41;2.30;;;1.30;;
48550;SDS011;34397;51.176;6.738;2022-09-01T12:51:19;3.03;;;1.63;;
48550;SDS011;34397;51.176;6.738;2022-09-01T12:53:57;3.00;;;1.65;;
48550;SDS011;34397;51.176;6.738;2022-09-01T12:56:34;2.00;;;1.30;;
48550;SDS011;34397;51.176;6.738;2022-09-01T12:59:12;3.40;;;1.50;;
48550;SDS011;34397;51.176;6.738;2022-09-01T13:01:54;3.47;;;1.63;;
48550;SDS011;34397;51.176;6.738;2022-09-01T13:04:27;3.47;;;1.30;;
48550;SDS011;34397;51.176;6.738;2022-09-01T13:07:03;2.58;;;1.50;;
48550;SDS011;34397;51.176;6.738;2022-09-01T13:09:37;2.20;;;1.45;;
48550;SDS011;34397;51.176;6.738;2022-09-01T13:14:49;2.75;;;1.60;;
48550;SDS011;34397;51.176;6.738;2022-09-01T13:17:22;2.10;;;1.50;;
48550;SDS011;34397;51.176;6.738;2022-09-01T13:20:00;2.78;;;1.70;;
48550;SDS011;34397;51.176;6.738;2022-09-01T13:22:37;3.05;;;1.40;;
48550;SDS011;34397;51.176;6.738;2022-09-01T13:25:14;3.35;;;1.58;;
48550;SDS011;34397;51.176;6.738;2022-09-01T13:27:50;2.28;;;1.58;;
48550;SDS011;34397;51.176;6.738;2022-09-01T13:30:27;2.47;;;1.67;;
48550;SDS011;34397;51.176;6.738;2022-09-01T13:33:02;3.53;;;1.50;;
48550;SDS011;34397;51.176;6.738;2022-09-01T13:35:34;2.55;;;1.67;;
48550;SDS011;34397;51.176;6.738;2022-09-01T13:38:10;2.58;;;1.58;;
48550;SDS011;34397;51.176;6.738;2022-09-01T13:40:48;2.38;;;1.45;;
48550;SDS011;34397;51.176;6.738;2022-09-01T13:43:29;3.40;;;1.70;;
48550;SDS011;34397;51.176;6.738;2022-09-01T13:46:01;3.08;;;1.60;;
48550;SDS011;34397;51.176;6.738;2022-09-01T13:48:33;2.28;;;1.52;;
48550;SDS011;34397;51.176;6.738;2022-09-01T13:51:09;2.33;;;1.67;;
48550;SDS011;34397;51.176;6.738;2022-09-01T13:53:41;3.33;;;1.63;;
48550;SDS011;34397;51.176;6.738;2022-09-01T13:56:13;3.05;;;1.48;;
48550;SDS011;34397;51.176;6.738;2022-09-01T13:58:46;2.10;;;1.45;;
48550;SDS011;34397;51.176;6.738;2022-09-01T14:01:19;3.72;;;1.70;;
48550;SDS011;34397;51.176;6.738;2022-09-01T14:03:52;3.97;;;2.00;;
48550;SDS011;34397;51.176;6.738;2022-09-01T14:06:27;2.88;;;1.75;;
48550;SDS011;34397;51.176;6.738;2022-09-01T14:08:59;3.47;;;1.90;;
48550;SDS011;34397;51.176;6.738;2022-09-01T14:11:34;3.97;;;1.60;;
48550;SDS011;34397;51.176;6.738;2022-09-01T14:14:11;4.47;;;1.70;;
48550;SDS011;34397;51.176;6.738;2022-09-01T14:16:46;3.20;;;1.70;;
48550;SDS011;34397;51.176;6.738;2022-09-01T14:19:18;3.63;;;2.00;;
48550;SDS011;34397;51.176;6.738;2022-09-01T14:21:50;44.35;;;6.72;;
48550;SDS011;34397;51.176;6.738;2022-09-01T14:24:22;19.33;;;3.05;;
48550;SDS011;34397;51.176;6.738;2022-09-01T14:26:57;3.80;;;2.10;;
48550;SDS011;34397;51.176;6.738;2022-09-01T14:29:30;8.20;;;2.53;;
48550;SDS011;34397;51.176;6.738;2022-09-01T14:32:02;3.47;;;1.80;;
48550;SDS011;34397;51.176;6.738;2022-09-01T14:34:38;4.75;;;2.85;;
48550;SDS011;34397;51.176;6.738;2022-09-01T14:37:13;5.00;;;2.60;;
48550;SDS011;34397;51.176;6.738;2022-09-01T14:39:48;4.63;;;2.50;;
48550;SDS011;34397;51.176;6.738;2022-09-01T14:42:20;2.75;;;1.90;;
48550;SDS011;34397;51.176;6.738;2022-09-01T14:44:57;4.18;;;2.00;;
48550;SDS011;34397;51.176;6.738;2022-09-01T14:47:29;3.35;;;2.00;;
48550;SDS011;34397;51.176;6.738;2022-09-01T14:50:02;3.03;;;1.90;;
48550;SDS011;34397;51.176;6.738;2022-09-01T14:52:36;2.38;;;1.60;;
48550;SDS011;34397;51.176;6.738;2022-09-01T14:55:10;3.70;;;1.73;;
48550;SDS011;34397;51.176;6.738;2022-09-01T14:57:46;2.83;;;1.73;;
48550;SDS011;34397;51.176;6.738;2022-09-01T15:00:21;3.03;;;1.95;;
48550;SDS011;34397;51.176;6.738;2022-09-01T15:02:55;4.35;;;2.00;;
48550;SDS011;34397;51.176;6.738;2022-09-01T15:05:27;3.20;;;2.00;;
48550;SDS011;34397;51.176;6.738;2022-09-01T15:07:59;2.60;;;1.90;;
48550;SDS011;34397;51.176;6.738;2022-09-01T15:10:34;3.05;;;1.85;;
48550;SDS011;34397;51.176;6.738;2022-09-01T15:13:06;3.35;;;2.15;;
48550;SDS011;34397;51.176;6.738;2022-09-01T15:15:44;2.55;;;1.85;;
48550;SDS011;34397;51.176;6.738;2022-09-01T15:18:30;3.22;;;2.03;;
48550;SDS011;34397;51.176;6.738;2022-09-01T15:23:39;2.90;;;1.90;;
48550;SDS011;34397;51.176;6.738;2022-09-01T15:26:17;3.58;;;1.98;;
48550;SDS011;34397;51.176;6.738;2022-09-01T15:28:50;4.07;;;2.20;;
48550;SDS011;34397;51.176;6.738;2022-09-01T15:31:24;4.22;;;2.17;;
48550;SDS011;34397;51.176;6.738;2022-09-01T15:34:01;4.38;;;2.13;;
48550;SDS011;34397;51.176;6.738;2022-09-01T15:36:35;3.05;;;2.15;;
48550;SDS011;34397;51.176;6.738;2022-09-01T15:39:10;3.58;;;2.28;;
48550;SDS011;34397;51.176;6.738;2022-09-01T15:41:42;3.10;;;1.83;;
48550;SDS011;34397;51.176;6.738;2022-09-01T15:44:17;3.63;;;2.33;;
48550;SDS011;34397;51.176;6.738;2022-09-01T15:46:52;5.30;;;2.40;;
48550;SDS011;34397;51.176;6.738;2022-09-01T15:49:27;4.13;;;2.35;;
48550;SDS011;34397;51.176;6.738;2022-09-01T15:51:59;4.63;;;3.15;;
48550;SDS011;34397;51.176;6.738;2022-09-01T15:54:31;4.82;;;2.67;;
48550;SDS011;34397;51.176;6.738;2022-09-01T15:57:10;4.72;;;2.40;;
48550;SDS011;34397;51.176;6.738;2022-09-01T15:59:42;3.88;;;2.40;;
48550;SDS011;34397;51.176;6.738;2022-09-01T16:02:15;3.85;;;2.60;;
48550;SDS011;34397;51.176;6.738;2022-09-01T16:04:59;3.38;;;2.35;;
48550;SDS011;34397;51.176;6.738;2022-09-01T16:07:36;3.63;;;2.22;;
48550;SDS011;34397;51.176;6.738;2022-09-01T16:10:09;3.83;;;2.30;;
48550;SDS011;34397;51.176;6.738;2022-09-01T16:12:44;2.95;;;2.10;;
48550;SDS011;34397;51.176;6.738;2022-09-01T16:15:20;3.38;;;2.33;;
48550;SDS011;34397;51.176;6.738;2022-09-01T16:17:58;3.67;;;2.17;;